CYUL/YUL METAR and TAF weather

Enter ICAO airport designator
Station Type Date Time Source
CYUL METAR 2018/04/21 11:00 UTC NOAA

CYUL 211100Z 31006KT 30SM SKC 02/M05 A3032 RMK SLP272


Station Type Date Time Source
CYUL Decoded METAR 2018/04/21 11:00 UTC NOAA

Montreal / Pierre Elliot Trudeau International Airport, Que, Canada (CYUL) 45-28N 073-45W 36M
Apr 21, 2018 - 07:00 AM EDT / 2018.04.21 1100 UTC
Wind: from the NW (310 degrees) at 7 MPH (6 KT):0
Visibility: 30 mile(s):0
Sky conditions: clear
Temperature: 35 F (2 C)
Windchill: 28 F (-2 C):1
Dew Point: 23 F (-5 C)
Relative Humidity: 59%
Pressure (altimeter): 30.32 in. Hg (1026 hPa)
ob: CYUL 211100Z 31006KT 30SM SKC 02/M05 A3032 RMK SLP272
cycle: 11

Station Type Date Time Source
CYUL TAF 2018/04/21 12:42 UTC NOAA

TAF TAF CYUL 211138Z 2112/2212 31006KT P6SM FEW060
BECMG 2114/2116 28015KT
FM212200 30010KT P6SM SKC
BECMG 2203/2205 33005KT
RMK NXT FCST BY 211500Z


Example: see airport list